Appleton, Maine
Current Conditions -  °F | °C
As of 11:55 AM on Thursday 30 Oct 2014 (Local Time) from KRKD Reporting Station
Overcast Overcast  
Wind Chill: 13°   Ceiling: 8500
Heat Index: 13°   Visibility: 10mi
Dew Point:   Wind: 13mph
Humidity: 54%   Direction: 290°WNW
Pressure: 29.87"   Gusts: 16mph
Location:  44.2596°N, 69.2573°W
Report Text: KRKD 301555Z AUTO 29011G14KT 10SM FEW034 OVC085 13/04 A2987 RMK AO1
Loading
Personal Weather Stations






























Interactive Weather Map
Tropical Storm Tracking
New forecast layout! Learn more

10-Day Weather Forecast

Advertisements
Track Severe Weather on mobile